sensor_id;sensor_type;location;lat;lon;timestamp;P1;durP1;ratioP1;P2;durP2;ratioP2
44214;SDS011;29884;47.450;19.124;2022-10-17T00:01:10;16.17;;;9.85;;
44214;SDS011;29884;47.450;19.124;2022-10-17T00:03:37;16.75;;;9.90;;
44214;SDS011;29884;47.450;19.124;2022-10-17T00:06:05;16.50;;;9.98;;
44214;SDS011;29884;47.450;19.124;2022-10-17T00:08:33;17.73;;;9.30;;
44214;SDS011;29884;47.450;19.124;2022-10-17T00:11:01;13.52;;;9.73;;
44214;SDS011;29884;47.450;19.124;2022-10-17T00:13:29;15.10;;;9.32;;
44214;SDS011;29884;47.450;19.124;2022-10-17T00:15:55;20.52;;;9.73;;
44214;SDS011;29884;47.450;19.124;2022-10-17T00:18:22;16.55;;;9.65;;
44214;SDS011;29884;47.450;19.124;2022-10-17T00:20:48;16.30;;;10.20;;
44214;SDS011;29884;47.450;19.124;2022-10-17T00:23:13;16.23;;;9.73;;
44214;SDS011;29884;47.450;19.124;2022-10-17T00:25:39;14.45;;;9.73;;
44214;SDS011;29884;47.450;19.124;2022-10-17T00:28:05;14.40;;;10.27;;
44214;SDS011;29884;47.450;19.124;2022-10-17T00:30:33;14.65;;;9.35;;
44214;SDS011;29884;47.450;19.124;2022-10-17T00:32:59;16.67;;;9.77;;
44214;SDS011;29884;47.450;19.124;2022-10-17T00:35:25;15.27;;;9.32;;
44214;SDS011;29884;47.450;19.124;2022-10-17T00:37:51;15.45;;;9.70;;
44214;SDS011;29884;47.450;19.124;2022-10-17T00:40:16;15.38;;;9.57;;
44214;SDS011;29884;47.450;19.124;2022-10-17T00:42:42;17.30;;;10.00;;
44214;SDS011;29884;47.450;19.124;2022-10-17T00:47:56;13.98;;;9.93;;
44214;SDS011;29884;47.450;19.124;2022-10-17T00:50:25;17.80;;;10.13;;
44214;SDS011;29884;47.450;19.124;2022-10-17T00:52:52;14.48;;;9.57;;
44214;SDS011;29884;47.450;19.124;2022-10-17T00:55:22;16.55;;;10.82;;
44214;SDS011;29884;47.450;19.124;2022-10-17T00:57:53;17.70;;;10.48;;
44214;SDS011;29884;47.450;19.124;2022-10-17T01:00:19;14.18;;;9.18;;
44214;SDS011;29884;47.450;19.124;2022-10-17T01:02:46;15.15;;;9.25;;
44214;SDS011;29884;47.450;19.124;2022-10-17T01:05:12;13.27;;;9.10;;
44214;SDS011;29884;47.450;19.124;2022-10-17T01:07:39;14.57;;;9.38;;
44214;SDS011;29884;47.450;19.124;2022-10-17T01:10:07;18.48;;;10.20;;
44214;SDS011;29884;47.450;19.124;2022-10-17T01:12:42;15.73;;;10.00;;
44214;SDS011;29884;47.450;19.124;2022-10-17T01:24:40;14.05;;;9.77;;
44214;SDS011;29884;47.450;19.124;2022-10-17T01:27:35;15.43;;;9.70;;
44214;SDS011;29884;47.450;19.124;2022-10-17T01:30:22;13.27;;;9.63;;
44214;SDS011;29884;47.450;19.124;2022-10-17T01:32:53;12.13;;;9.20;;
44214;SDS011;29884;47.450;19.124;2022-10-17T01:35:37;14.35;;;9.60;;
44214;SDS011;29884;47.450;19.124;2022-10-17T01:38:22;13.75;;;9.63;;
44214;SDS011;29884;47.450;19.124;2022-10-17T01:44:47;15.35;;;9.98;;
44214;SDS011;29884;47.450;19.124;2022-10-17T01:46:45;14.38;;;9.32;;
44214;SDS011;29884;47.450;19.124;2022-10-17T01:49:17;17.20;;;10.32;;
44214;SDS011;29884;47.450;19.124;2022-10-17T01:51:49;13.98;;;9.30;;
44214;SDS011;29884;47.450;19.124;2022-10-17T01:54:24;13.82;;;8.95;;
44214;SDS011;29884;47.450;19.124;2022-10-17T01:56:57;15.10;;;9.68;;
44214;SDS011;29884;47.450;19.124;2022-10-17T01:59:30;18.55;;;9.75;;
44214;SDS011;29884;47.450;19.124;2022-10-17T02:02:02;13.05;;;9.63;;
44214;SDS011;29884;47.450;19.124;2022-10-17T02:04:30;14.20;;;9.02;;
44214;SDS011;29884;47.450;19.124;2022-10-17T02:06:56;12.20;;;8.88;;
44214;SDS011;29884;47.450;19.124;2022-10-17T02:09:31;16.17;;;10.43;;
44214;SDS011;29884;47.450;19.124;2022-10-17T02:14:41;15.10;;;9.80;;
44214;SDS011;29884;47.450;19.124;2022-10-17T02:22:50;13.52;;;9.70;;
44214;SDS011;29884;47.450;19.124;2022-10-17T02:25:22;15.95;;;9.77;;
44214;SDS011;29884;47.450;19.124;2022-10-17T02:33:28;15.07;;;9.50;;
44214;SDS011;29884;47.450;19.124;2022-10-17T02:36:00;19.05;;;10.85;;
44214;SDS011;29884;47.450;19.124;2022-10-17T02:38:30;18.55;;;10.68;;
44214;SDS011;29884;47.450;19.124;2022-10-17T02:40:58;15.13;;;10.15;;
44214;SDS011;29884;47.450;19.124;2022-10-17T02:43:25;17.45;;;10.30;;
44214;SDS011;29884;47.450;19.124;2022-10-17T02:45:51;23.02;;;10.65;;
44214;SDS011;29884;47.450;19.124;2022-10-17T02:53:37;19.17;;;10.60;;
44214;SDS011;29884;47.450;19.124;2022-10-17T02:56:05;14.88;;;10.40;;
44214;SDS011;29884;47.450;19.124;2022-10-17T02:58:38;12.88;;;9.52;;
44214;SDS011;29884;47.450;19.124;2022-10-17T03:01:06;17.13;;;10.38;;
44214;SDS011;29884;47.450;19.124;2022-10-17T03:03:32;16.98;;;10.65;;
44214;SDS011;29884;47.450;19.124;2022-10-17T03:05:58;17.77;;;10.32;;
44214;SDS011;29884;47.450;19.124;2022-10-17T03:08:24;12.45;;;9.27;;
44214;SDS011;29884;47.450;19.124;2022-10-17T03:10:49;13.00;;;9.73;;
44214;SDS011;29884;47.450;19.124;2022-10-17T03:13:15;17.92;;;10.75;;
44214;SDS011;29884;47.450;19.124;2022-10-17T03:15:41;15.07;;;9.73;;
44214;SDS011;29884;47.450;19.124;2022-10-17T03:18:07;13.70;;;9.73;;
44214;SDS011;29884;47.450;19.124;2022-10-17T03:20:33;15.75;;;10.02;;
44214;SDS011;29884;47.450;19.124;2022-10-17T03:22:59;17.38;;;10.10;;
44214;SDS011;29884;47.450;19.124;2022-10-17T03:25:25;14.05;;;10.35;;
44214;SDS011;29884;47.450;19.124;2022-10-17T03:27:51;15.55;;;10.98;;
44214;SDS011;29884;47.450;19.124;2022-10-17T03:30:18;17.27;;;10.07;;
44214;SDS011;29884;47.450;19.124;2022-10-17T03:32:44;17.00;;;11.23;;
44214;SDS011;29884;47.450;19.124;2022-10-17T03:35:09;15.80;;;10.82;;
44214;SDS011;29884;47.450;19.124;2022-10-17T03:37:35;19.25;;;12.48;;
44214;SDS011;29884;47.450;19.124;2022-10-17T03:40:01;17.00;;;11.52;;
44214;SDS011;29884;47.450;19.124;2022-10-17T03:42:27;18.30;;;11.30;;
44214;SDS011;29884;47.450;19.124;2022-10-17T03:44:53;16.02;;;11.38;;
44214;SDS011;29884;47.450;19.124;2022-10-17T03:47:18;17.20;;;11.13;;
44214;SDS011;29884;47.450;19.124;2022-10-17T03:49:44;16.48;;;11.10;;
44214;SDS011;29884;47.450;19.124;2022-10-17T03:52:11;15.00;;;11.18;;
44214;SDS011;29884;47.450;19.124;2022-10-17T03:54:37;14.65;;;11.07;;
44214;SDS011;29884;47.450;19.124;2022-10-17T03:57:02;15.35;;;10.52;;
44214;SDS011;29884;47.450;19.124;2022-10-17T03:59:29;14.60;;;10.95;;
44214;SDS011;29884;47.450;19.124;2022-10-17T04:01:55;15.82;;;11.13;;
44214;SDS011;29884;47.450;19.124;2022-10-17T04:04:21;15.80;;;11.40;;
44214;SDS011;29884;47.450;19.124;2022-10-17T04:06:46;17.27;;;11.45;;
44214;SDS011;29884;47.450;19.124;2022-10-17T04:09:12;22.25;;;15.80;;
44214;SDS011;29884;47.450;19.124;2022-10-17T04:11:38;20.50;;;12.82;;
44214;SDS011;29884;47.450;19.124;2022-10-17T04:14:04;19.75;;;11.20;;
44214;SDS011;29884;47.450;19.124;2022-10-17T04:16:30;16.02;;;11.85;;
44214;SDS011;29884;47.450;19.124;2022-10-17T04:18:57;17.77;;;11.15;;
44214;SDS011;29884;47.450;19.124;2022-10-17T04:21:24;18.10;;;11.05;;
44214;SDS011;29884;47.450;19.124;2022-10-17T04:23:54;17.70;;;11.68;;
44214;SDS011;29884;47.450;19.124;2022-10-17T04:26:21;15.82;;;11.43;;
44214;SDS011;29884;47.450;19.124;2022-10-17T04:28:47;18.15;;;12.10;;
44214;SDS011;29884;47.450;19.124;2022-10-17T04:31:13;17.83;;;12.10;;
44214;SDS011;29884;47.450;19.124;2022-10-17T04:33:39;17.73;;;13.23;;
44214;SDS011;29884;47.450;19.124;2022-10-17T04:36:07;24.48;;;13.45;;
44214;SDS011;29884;47.450;19.124;2022-10-17T04:38:37;20.30;;;13.45;;
44214;SDS011;29884;47.450;19.124;2022-10-17T04:41:04;22.20;;;13.00;;
44214;SDS011;29884;47.450;19.124;2022-10-17T04:43:32;18.05;;;13.25;;
44214;SDS011;29884;47.450;19.124;2022-10-17T04:46:00;19.23;;;13.35;;
44214;SDS011;29884;47.450;19.124;2022-10-17T04:48:28;19.25;;;12.18;;
44214;SDS011;29884;47.450;19.124;2022-10-17T04:50:55;17.42;;;12.50;;
44214;SDS011;29884;47.450;19.124;2022-10-17T04:53:25;20.20;;;12.77;;
44214;SDS011;29884;47.450;19.124;2022-10-17T04:55:52;20.30;;;13.00;;
44214;SDS011;29884;47.450;19.124;2022-10-17T04:58:18;16.55;;;12.75;;
44214;SDS011;29884;47.450;19.124;2022-10-17T05:00:44;18.63;;;12.90;;
44214;SDS011;29884;47.450;19.124;2022-10-17T05:03:11;21.17;;;12.75;;
44214;SDS011;29884;47.450;19.124;2022-10-17T05:05:37;22.10;;;13.23;;
44214;SDS011;29884;47.450;19.124;2022-10-17T05:08:04;21.15;;;12.98;;
44214;SDS011;29884;47.450;19.124;2022-10-17T05:10:34;20.20;;;12.98;;
44214;SDS011;29884;47.450;19.124;2022-10-17T05:13:07;19.05;;;13.25;;
44214;SDS011;29884;47.450;19.124;2022-10-17T05:15:34;19.30;;;12.95;;
44214;SDS011;29884;47.450;19.124;2022-10-17T05:18:00;23.92;;;13.70;;
44214;SDS011;29884;47.450;19.124;2022-10-17T05:20:27;20.55;;;12.35;;
44214;SDS011;29884;47.450;19.124;2022-10-17T05:22:53;20.77;;;12.45;;
44214;SDS011;29884;47.450;19.124;2022-10-17T05:25:19;20.83;;;12.75;;
44214;SDS011;29884;47.450;19.124;2022-10-17T05:27:45;18.42;;;11.43;;
44214;SDS011;29884;47.450;19.124;2022-10-17T05:30:11;20.73;;;12.32;;
44214;SDS011;29884;47.450;19.124;2022-10-17T05:32:37;16.13;;;11.32;;
44214;SDS011;29884;47.450;19.124;2022-10-17T05:35:03;18.83;;;11.98;;
44214;SDS011;29884;47.450;19.124;2022-10-17T05:37:29;15.50;;;11.63;;
44214;SDS011;29884;47.450;19.124;2022-10-17T05:39:56;16.25;;;11.48;;
44214;SDS011;29884;47.450;19.124;2022-10-17T05:42:22;17.40;;;12.30;;
44214;SDS011;29884;47.450;19.124;2022-10-17T05:44:47;18.38;;;12.35;;
44214;SDS011;29884;47.450;19.124;2022-10-17T05:47:13;16.60;;;12.85;;
44214;SDS011;29884;47.450;19.124;2022-10-17T05:49:39;23.42;;;12.73;;
44214;SDS011;29884;47.450;19.124;2022-10-17T05:52:05;21.70;;;12.98;;
44214;SDS011;29884;47.450;19.124;2022-10-17T05:54:31;24.75;;;13.27;;
44214;SDS011;29884;47.450;19.124;2022-10-17T05:56:57;19.52;;;12.93;;
44214;SDS011;29884;47.450;19.124;2022-10-17T05:59:25;20.33;;;13.63;;
44214;SDS011;29884;47.450;19.124;2022-10-17T06:01:52;17.50;;;12.07;;
44214;SDS011;29884;47.450;19.124;2022-10-17T06:04:18;15.73;;;11.55;;
44214;SDS011;29884;47.450;19.124;2022-10-17T06:06:44;20.55;;;12.98;;
44214;SDS011;29884;47.450;19.124;2022-10-17T06:09:10;18.25;;;12.18;;
44214;SDS011;29884;47.450;19.124;2022-10-17T06:11:36;19.70;;;12.27;;
44214;SDS011;29884;47.450;19.124;2022-10-17T06:14:02;16.92;;;12.48;;
44214;SDS011;29884;47.450;19.124;2022-10-17T06:16:28;18.67;;;13.05;;
44214;SDS011;29884;47.450;19.124;2022-10-17T06:18:54;20.67;;;12.48;;
44214;SDS011;29884;47.450;19.124;2022-10-17T06:21:21;23.70;;;11.70;;
44214;SDS011;29884;47.450;19.124;2022-10-17T06:23:48;32.80;;;13.65;;
44214;SDS011;29884;47.450;19.124;2022-10-17T06:26:15;27.35;;;12.95;;
44214;SDS011;29884;47.450;19.124;2022-10-17T06:28:41;27.05;;;13.25;;
44214;SDS011;29884;47.450;19.124;2022-10-17T06:31:08;24.20;;;12.60;;
44214;SDS011;29884;47.450;19.124;2022-10-17T06:33:35;20.48;;;12.40;;
44214;SDS011;29884;47.450;19.124;2022-10-17T06:36:02;17.25;;;11.50;;
44214;SDS011;29884;47.450;19.124;2022-10-17T06:38:29;17.15;;;10.65;;
44214;SDS011;29884;47.450;19.124;2022-10-17T06:41:03;18.15;;;11.80;;
44214;SDS011;29884;47.450;19.124;2022-10-17T06:43:32;22.35;;;11.82;;
44214;SDS011;29884;47.450;19.124;2022-10-17T06:46:01;19.20;;;10.75;;
44214;SDS011;29884;47.450;19.124;2022-10-17T06:48:27;23.08;;;11.50;;
44214;SDS011;29884;47.450;19.124;2022-10-17T06:50:57;18.48;;;11.88;;
44214;SDS011;29884;47.450;19.124;2022-10-17T06:53:23;18.65;;;12.25;;
44214;SDS011;29884;47.450;19.124;2022-10-17T06:55:52;22.77;;;11.57;;
44214;SDS011;29884;47.450;19.124;2022-10-17T06:58:19;20.80;;;11.15;;
44214;SDS011;29884;47.450;19.124;2022-10-17T07:00:45;22.05;;;12.43;;
44214;SDS011;29884;47.450;19.124;2022-10-17T07:03:10;19.10;;;11.25;;
44214;SDS011;29884;47.450;19.124;2022-10-17T07:05:36;17.80;;;10.40;;
44214;SDS011;29884;47.450;19.124;2022-10-17T07:08:03;19.65;;;10.13;;
44214;SDS011;29884;47.450;19.124;2022-10-17T07:10:29;12.90;;;8.73;;
44214;SDS011;29884;47.450;19.124;2022-10-17T07:12:55;11.75;;;9.15;;
44214;SDS011;29884;47.450;19.124;2022-10-17T07:15:20;14.98;;;7.97;;
44214;SDS011;29884;47.450;19.124;2022-10-17T07:17:49;13.57;;;8.20;;
44214;SDS011;29884;47.450;19.124;2022-10-17T07:20:15;14.32;;;8.10;;
44214;SDS011;29884;47.450;19.124;2022-10-17T07:22:41;16.17;;;8.55;;
44214;SDS011;29884;47.450;19.124;2022-10-17T07:25:07;11.57;;;8.18;;
44214;SDS011;29884;47.450;19.124;2022-10-17T07:27:33;13.70;;;8.00;;
44214;SDS011;29884;47.450;19.124;2022-10-17T07:29:58;11.90;;;8.43;;
44214;SDS011;29884;47.450;19.124;2022-10-17T07:32:24;16.90;;;8.68;;
44214;SDS011;29884;47.450;19.124;2022-10-17T07:34:50;16.08;;;8.60;;
44214;SDS011;29884;47.450;19.124;2022-10-17T07:37:16;10.48;;;7.00;;
44214;SDS011;29884;47.450;19.124;2022-10-17T07:39:41;12.75;;;7.78;;
44214;SDS011;29884;47.450;19.124;2022-10-17T07:42:07;14.60;;;7.10;;
44214;SDS011;29884;47.450;19.124;2022-10-17T07:44:34;8.40;;;6.60;;
44214;SDS011;29884;47.450;19.124;2022-10-17T07:46:59;10.30;;;7.43;;
44214;SDS011;29884;47.450;19.124;2022-10-17T07:49:25;11.38;;;7.28;;
44214;SDS011;29884;47.450;19.124;2022-10-17T07:51:51;13.23;;;6.97;;
44214;SDS011;29884;47.450;19.124;2022-10-17T07:54:17;9.85;;;6.65;;
44214;SDS011;29884;47.450;19.124;2022-10-17T07:56:42;9.38;;;6.45;;
44214;SDS011;29884;47.450;19.124;2022-10-17T07:59:14;11.95;;;6.85;;
44214;SDS011;29884;47.450;19.124;2022-10-17T08:01:43;13.48;;;7.53;;
44214;SDS011;29884;47.450;19.124;2022-10-17T08:04:09;10.82;;;6.22;;
44214;SDS011;29884;47.450;19.124;2022-10-17T08:06:34;13.88;;;7.00;;
44214;SDS011;29884;47.450;19.124;2022-10-17T08:09:00;9.88;;;6.10;;
44214;SDS011;29884;47.450;19.124;2022-10-17T08:11:26;14.20;;;6.07;;
44214;SDS011;29884;47.450;19.124;2022-10-17T08:13:52;10.75;;;5.97;;
44214;SDS011;29884;47.450;19.124;2022-10-17T08:16:17;11.90;;;6.43;;
44214;SDS011;29884;47.450;19.124;2022-10-17T08:18:43;12.40;;;6.55;;
44214;SDS011;29884;47.450;19.124;2022-10-17T08:21:09;13.63;;;6.82;;
44214;SDS011;29884;47.450;19.124;2022-10-17T08:23:37;12.70;;;6.78;;
44214;SDS011;29884;47.450;19.124;2022-10-17T08:26:03;11.52;;;6.70;;
44214;SDS011;29884;47.450;19.124;2022-10-17T08:28:33;16.73;;;6.95;;
44214;SDS011;29884;47.450;19.124;2022-10-17T08:31:07;13.40;;;5.97;;
44214;SDS011;29884;47.450;19.124;2022-10-17T08:33:37;10.32;;;5.93;;
44214;SDS011;29884;47.450;19.124;2022-10-17T08:36:04;9.27;;;6.13;;
44214;SDS011;29884;47.450;19.124;2022-10-17T08:38:30;11.20;;;5.90;;
44214;SDS011;29884;47.450;19.124;2022-10-17T08:40:59;10.82;;;6.07;;
44214;SDS011;29884;47.450;19.124;2022-10-17T08:46:14;10.93;;;5.25;;
44214;SDS011;29884;47.450;19.124;2022-10-17T08:48:41;11.85;;;5.30;;
44214;SDS011;29884;47.450;19.124;2022-10-17T08:51:20;7.72;;;4.93;;
44214;SDS011;29884;47.450;19.124;2022-10-17T08:53:52;10.80;;;4.95;;
44214;SDS011;29884;47.450;19.124;2022-10-17T08:56:53;9.98;;;5.55;;
44214;SDS011;29884;47.450;19.124;2022-10-17T08:59:23;9.65;;;5.18;;
44214;SDS011;29884;47.450;19.124;2022-10-17T09:07:47;6.80;;;4.57;;
44214;SDS011;29884;47.450;19.124;2022-10-17T09:21:03;8.88;;;4.07;;
44214;SDS011;29884;47.450;19.124;2022-10-17T09:23:44;9.07;;;3.90;;
44214;SDS011;29884;47.450;19.124;2022-10-17T09:26:20;8.57;;;4.18;;
44214;SDS011;29884;47.450;19.124;2022-10-17T09:28:58;7.70;;;3.65;;
44214;SDS011;29884;47.450;19.124;2022-10-17T09:31:25;9.27;;;3.75;;
44214;SDS011;29884;47.450;19.124;2022-10-17T09:33:56;9.10;;;3.75;;
44214;SDS011;29884;47.450;19.124;2022-10-17T09:36:30;9.00;;;4.60;;
44214;SDS011;29884;47.450;19.124;2022-10-17T09:38:59;9.20;;;4.03;;
44214;SDS011;29884;47.450;19.124;2022-10-17T09:41:26;7.45;;;4.15;;
44214;SDS011;29884;47.450;19.124;2022-10-17T09:49:20;5.32;;;3.40;;
44214;SDS011;29884;47.450;19.124;2022-10-17T09:51:55;6.97;;;3.15;;
44214;SDS011;29884;47.450;19.124;2022-10-17T09:54:25;7.80;;;3.00;;
44214;SDS011;29884;47.450;19.124;2022-10-17T09:59:31;6.40;;;2.30;;
44214;SDS011;29884;47.450;19.124;2022-10-17T10:04:53;3.50;;;2.60;;
44214;SDS011;29884;47.450;19.124;2022-10-17T10:07:21;7.82;;;2.80;;
44214;SDS011;29884;47.450;19.124;2022-10-17T10:09:49;9.75;;;2.83;;
44214;SDS011;29884;47.450;19.124;2022-10-17T10:12:17;7.90;;;2.50;;
44214;SDS011;29884;47.450;19.124;2022-10-17T10:14:46;3.28;;;2.58;;
44214;SDS011;29884;47.450;19.124;2022-10-17T10:17:26;5.32;;;2.60;;
44214;SDS011;29884;47.450;19.124;2022-10-17T10:20:23;7.63;;;2.38;;
44214;SDS011;29884;47.450;19.124;2022-10-17T10:25:31;4.60;;;3.00;;
44214;SDS011;29884;47.450;19.124;2022-10-17T10:27:57;5.25;;;2.60;;
44214;SDS011;29884;47.450;19.124;2022-10-17T10:30:24;6.45;;;2.85;;
44214;SDS011;29884;47.450;19.124;2022-10-17T10:32:54;8.55;;;2.80;;
44214;SDS011;29884;47.450;19.124;2022-10-17T10:35:32;13.15;;;3.10;;
44214;SDS011;29884;47.450;19.124;2022-10-17T10:38:00;4.57;;;2.50;;
44214;SDS011;29884;47.450;19.124;2022-10-17T10:45:55;3.35;;;2.47;;
44214;SDS011;29884;47.450;19.124;2022-10-17T10:48:25;5.22;;;2.40;;
44214;SDS011;29884;47.450;19.124;2022-10-17T10:51:12;4.45;;;2.38;;
44214;SDS011;29884;47.450;19.124;2022-10-17T10:56:44;10.33;;;2.47;;
44214;SDS011;29884;47.450;19.124;2022-10-17T11:01:50;5.72;;;2.35;;
44214;SDS011;29884;47.450;19.124;2022-10-17T11:07:05;7.75;;;2.70;;
44214;SDS011;29884;47.450;19.124;2022-10-17T11:12:19;6.60;;;2.22;;
44214;SDS011;29884;47.450;19.124;2022-10-17T11:15:11;8.10;;;2.72;;
44214;SDS011;29884;47.450;19.124;2022-10-17T11:20:44;5.90;;;2.22;;
44214;SDS011;29884;47.450;19.124;2022-10-17T11:23:27;4.35;;;2.13;;
44214;SDS011;29884;47.450;19.124;2022-10-17T11:25:56;4.13;;;1.73;;
44214;SDS011;29884;47.450;19.124;2022-10-17T11:28:25;3.80;;;2.40;;
44214;SDS011;29884;47.450;19.124;2022-10-17T11:31:08;3.60;;;1.85;;
44214;SDS011;29884;47.450;19.124;2022-10-17T11:36:36;8.55;;;1.90;;
44214;SDS011;29884;47.450;19.124;2022-10-17T11:39:16;3.05;;;1.92;;
44214;SDS011;29884;47.450;19.124;2022-10-17T11:41:44;5.10;;;1.98;;
44214;SDS011;29884;47.450;19.124;2022-10-17T11:47:02;7.78;;;1.90;;
44214;SDS011;29884;47.450;19.124;2022-10-17T11:49:59;3.75;;;1.58;;
44214;SDS011;29884;47.450;19.124;2022-10-17T11:52:55;3.20;;;1.60;;
44214;SDS011;29884;47.450;19.124;2022-10-17T11:55:31;5.97;;;1.80;;
44214;SDS011;29884;47.450;19.124;2022-10-17T12:12:00;6.25;;;1.70;;
44214;SDS011;29884;47.450;19.124;2022-10-17T12:17:26;3.40;;;1.60;;
44214;SDS011;29884;47.450;19.124;2022-10-17T12:20:36;4.82;;;1.52;;
44214;SDS011;29884;47.450;19.124;2022-10-17T12:25:37;3.97;;;1.63;;
44214;SDS011;29884;47.450;19.124;2022-10-17T12:31:07;4.15;;;1.50;;
44214;SDS011;29884;47.450;19.124;2022-10-17T12:33:59;2.22;;;1.23;;
44214;SDS011;29884;47.450;19.124;2022-10-17T12:46:46;3.03;;;1.25;;
44214;SDS011;29884;47.450;19.124;2022-10-17T12:52:14;5.60;;;1.30;;
44214;SDS011;29884;47.450;19.124;2022-10-17T12:54:41;2.97;;;1.30;;
44214;SDS011;29884;47.450;19.124;2022-10-17T12:57:14;4.63;;;1.05;;
44214;SDS011;29884;47.450;19.124;2022-10-17T12:59:55;4.60;;;1.20;;
44214;SDS011;29884;47.450;19.124;2022-10-17T13:02:22;2.13;;;1.10;;
44214;SDS011;29884;47.450;19.124;2022-10-17T13:04:51;7.32;;;1.15;;
44214;SDS011;29884;47.450;19.124;2022-10-17T13:07:35;4.65;;;1.13;;
44214;SDS011;29884;47.450;19.124;2022-10-17T13:10:05;8.93;;;1.20;;
44214;SDS011;29884;47.450;19.124;2022-10-17T13:12:42;2.00;;;0.98;;
44214;SDS011;29884;47.450;19.124;2022-10-17T13:15:10;2.42;;;1.08;;
44214;SDS011;29884;47.450;19.124;2022-10-17T13:17:42;3.53;;;1.35;;
44214;SDS011;29884;47.450;19.124;2022-10-17T13:20:18;3.65;;;1.38;;
44214;SDS011;29884;47.450;19.124;2022-10-17T13:22:45;5.22;;;1.42;;
44214;SDS011;29884;47.450;19.124;2022-10-17T13:25:13;3.72;;;1.20;;
44214;SDS011;29884;47.450;19.124;2022-10-17T13:27:41;4.45;;;1.25;;
44214;SDS011;29884;47.450;19.124;2022-10-17T13:32:53;3.40;;;1.10;;
44214;SDS011;29884;47.450;19.124;2022-10-17T13:35:52;2.08;;;1.02;;
44214;SDS011;29884;47.450;19.124;2022-10-17T13:38:11;3.13;;;1.00;;
44214;SDS011;29884;47.450;19.124;2022-10-17T13:40:39;2.58;;;0.88;;
44214;SDS011;29884;47.450;19.124;2022-10-17T13:43:16;3.03;;;1.30;;
44214;SDS011;29884;47.450;19.124;2022-10-17T13:45:51;3.70;;;1.33;;
44214;SDS011;29884;47.450;19.124;2022-10-17T13:48:22;3.50;;;1.10;;
44214;SDS011;29884;47.450;19.124;2022-10-17T13:50:51;2.90;;;1.42;;
44214;SDS011;29884;47.450;19.124;2022-10-17T13:56:14;3.58;;;1.20;;
44214;SDS011;29884;47.450;19.124;2022-10-17T13:58:52;4.03;;;1.15;;
44214;SDS011;29884;47.450;19.124;2022-10-17T14:01:21;2.92;;;1.20;;
44214;SDS011;29884;47.450;19.124;2022-10-17T14:03:49;3.00;;;1.17;;
44214;SDS011;29884;47.450;19.124;2022-10-17T14:08:57;5.88;;;1.40;;
44214;SDS011;29884;47.450;19.124;2022-10-17T14:14:06;2.90;;;1.25;;
44214;SDS011;29884;47.450;19.124;2022-10-17T14:16:44;7.93;;;1.20;;
44214;SDS011;29884;47.450;19.124;2022-10-17T14:19:16;3.13;;;1.10;;
44214;SDS011;29884;47.450;19.124;2022-10-17T14:22:14;5.30;;;1.20;;
44214;SDS011;29884;47.450;19.124;2022-10-17T14:24:42;6.55;;;1.23;;
44214;SDS011;29884;47.450;19.124;2022-10-17T14:29:55;4.10;;;1.08;;
44214;SDS011;29884;47.450;19.124;2022-10-17T14:32:25;4.80;;;1.20;;
44214;SDS011;29884;47.450;19.124;2022-10-17T14:34:53;3.33;;;1.20;;
44214;SDS011;29884;47.450;19.124;2022-10-17T14:39:52;6.00;;;4.38;;
44214;SDS011;29884;47.450;19.124;2022-10-17T14:42:21;4.75;;;2.80;;
44214;SDS011;29884;47.450;19.124;2022-10-17T14:44:50;3.45;;;2.03;;
44214;SDS011;29884;47.450;19.124;2022-10-17T14:47:19;2.92;;;1.70;;
44214;SDS011;29884;47.450;19.124;2022-10-17T14:49:49;3.35;;;1.38;;
44214;SDS011;29884;47.450;19.124;2022-10-17T14:54:42;2.72;;;1.77;;
44214;SDS011;29884;47.450;19.124;2022-10-17T14:57:17;3.55;;;1.70;;
44214;SDS011;29884;47.450;19.124;2022-10-17T14:59:48;4.78;;;1.75;;
44214;SDS011;29884;47.450;19.124;2022-10-17T15:02:14;3.55;;;1.30;;
44214;SDS011;29884;47.450;19.124;2022-10-17T15:04:40;3.60;;;1.30;;
44214;SDS011;29884;47.450;19.124;2022-10-17T15:07:05;6.43;;;1.48;;
44214;SDS011;29884;47.450;19.124;2022-10-17T15:09:31;4.35;;;1.40;;
44214;SDS011;29884;47.450;19.124;2022-10-17T15:12:00;5.63;;;1.58;;
44214;SDS011;29884;47.450;19.124;2022-10-17T15:14:28;3.50;;;1.65;;
44214;SDS011;29884;47.450;19.124;2022-10-17T15:16:53;5.38;;;1.50;;
44214;SDS011;29884;47.450;19.124;2022-10-17T15:19:19;3.22;;;1.80;;
44214;SDS011;29884;47.450;19.124;2022-10-17T15:21:45;3.08;;;1.60;;
44214;SDS011;29884;47.450;19.124;2022-10-17T15:24:10;4.05;;;1.40;;
44214;SDS011;29884;47.450;19.124;2022-10-17T15:26:36;7.47;;;1.70;;
44214;SDS011;29884;47.450;19.124;2022-10-17T15:29:02;6.45;;;1.60;;
44214;SDS011;29884;47.450;19.124;2022-10-17T15:31:29;4.70;;;1.73;;
44214;SDS011;29884;47.450;19.124;2022-10-17T15:33:55;5.45;;;1.75;;
44214;SDS011;29884;47.450;19.124;2022-10-17T15:36:25;5.97;;;1.85;;
44214;SDS011;29884;47.450;19.124;2022-10-17T15:38:57;9.32;;;2.03;;
44214;SDS011;29884;47.450;19.124;2022-10-17T15:41:25;12.25;;;2.63;;
44214;SDS011;29884;47.450;19.124;2022-10-17T15:43:52;7.53;;;2.15;;
44214;SDS011;29884;47.450;19.124;2022-10-17T15:46:20;6.68;;;1.90;;
44214;SDS011;29884;47.450;19.124;2022-10-17T15:48:48;6.65;;;1.60;;
44214;SDS011;29884;47.450;19.124;2022-10-17T15:51:14;7.80;;;2.03;;
44214;SDS011;29884;47.450;19.124;2022-10-17T15:53:40;13.93;;;2.30;;
44214;SDS011;29884;47.450;19.124;2022-10-17T15:56:06;6.95;;;1.95;;
44214;SDS011;29884;47.450;19.124;2022-10-17T15:58:34;3.50;;;1.65;;
44214;SDS011;29884;47.450;19.124;2022-10-17T16:01:02;5.68;;;2.58;;
44214;SDS011;29884;47.450;19.124;2022-10-17T16:03:29;7.53;;;3.47;;
44214;SDS011;29884;47.450;19.124;2022-10-17T16:05:55;6.57;;;3.08;;
44214;SDS011;29884;47.450;19.124;2022-10-17T16:08:20;4.13;;;2.65;;
44214;SDS011;29884;47.450;19.124;2022-10-17T16:10:49;7.53;;;2.72;;
44214;SDS011;29884;47.450;19.124;2022-10-17T16:13:19;15.18;;;3.13;;
44214;SDS011;29884;47.450;19.124;2022-10-17T16:15:47;15.20;;;3.95;;
44214;SDS011;29884;47.450;19.124;2022-10-17T16:18:12;11.85;;;4.30;;
44214;SDS011;29884;47.450;19.124;2022-10-17T16:20:38;11.90;;;4.65;;
44214;SDS011;29884;47.450;19.124;2022-10-17T16:23:04;13.70;;;3.88;;
44214;SDS011;29884;47.450;19.124;2022-10-17T16:25:31;14.70;;;3.88;;
44214;SDS011;29884;47.450;19.124;2022-10-17T16:27:58;11.43;;;3.25;;
44214;SDS011;29884;47.450;19.124;2022-10-17T16:30:25;14.82;;;3.20;;
44214;SDS011;29884;47.450;19.124;2022-10-17T16:32:52;13.35;;;2.70;;
44214;SDS011;29884;47.450;19.124;2022-10-17T16:35:20;8.23;;;2.72;;
44214;SDS011;29884;47.450;19.124;2022-10-17T16:37:51;11.27;;;2.75;;
44214;SDS011;29884;47.450;19.124;2022-10-17T16:40:17;8.95;;;3.10;;
44214;SDS011;29884;47.450;19.124;2022-10-17T16:42:43;13.35;;;3.35;;
44214;SDS011;29884;47.450;19.124;2022-10-17T16:45:10;11.93;;;2.90;;
44214;SDS011;29884;47.450;19.124;2022-10-17T16:47:41;14.70;;;3.93;;
44214;SDS011;29884;47.450;19.124;2022-10-17T16:50:07;17.83;;;4.55;;
44214;SDS011;29884;47.450;19.124;2022-10-17T16:52:33;13.15;;;4.75;;
44214;SDS011;29884;47.450;19.124;2022-10-17T16:54:58;22.65;;;5.53;;
44214;SDS011;29884;47.450;19.124;2022-10-17T16:57:24;18.02;;;5.72;;
44214;SDS011;29884;47.450;19.124;2022-10-17T16:59:50;12.75;;;4.60;;